Aérodrome :
LOGIN :

S'inscrire | Disclaimer

   EN    FR    IT 

 










Légende :    VFR   VFR Marginal   IFR   IFR Intensif   IFR Très Intensif
Visi : 
Plafond : 
>= 8 km
>= 3000ft
5 à 8 km
1000 à 3000 ft
1500m à 5 km
500 à 1000 ft
800 à 1500m
200 à 500 ft
< 800m
< 200 ft
Symboles :   Orages  Brouillard  Fortes neiges  Fortes précipitations  Vent > 20 kt
SIGMETs :   Divers  Orages  Givrage  Turbulence  Onde Orograph.  Cendres Volcan.







- Altitude de l'aérodrome : 1090 ft
- Code IATA : CFE
- Voir les cartes d'approche


LFLC - Clermont-Ferrand Auvergne

DERNIER METAR :
  • 200800Z AUTO VRB03KT 9999 SCT039 BKN056 BKN098 01/00 Q1011 NOSIG

METARs EXPIRÉS :
  • 200730Z AUTO VRB02KT 8000 3300 FEW033 SCT045 BKN062 01/00 Q1010 NOSIG
  • 200700Z AUTO VRB02KT 9999 BKN039 BKN048 BKN054 01/M00 Q1010 NOSIG
  • 200630Z AUTO 25002KT 7000 FEW041 BKN056 00/M01 Q1010 NOSIG
  • 200600Z AUTO VRB03KT 5000 BR FEW039 BKN056 00/M00 Q1010 NOSIG
  • 200530Z AUTO 00000KT 5000 BR BKN039 BKN056 OVC100 01/00 Q1010 NOSIG

TAF TAF LFLC
Valide du 20 à 03h jusqu'au 21 à 03h UTC


200200Z 2003/2103 VRB02KT 9999 BKN060
PROB40
TEMPO 2003/2006 4000 BR
BECMG 2013/2015 35007KT BKN020
TEMPO 2018/2021 BKN006
PROB40
TEMPO 2021/2103 BKN002
ATIS : +33 4 73 62 74 38
Pas de NOTAMs connus pour ce terrain.



MET'MAP, la Météo Aéronautique d'un coup d'oeil ! - Copyright ORBIFLY Décembre 2007 - Disclaimer

ORBIFLY MET'MAP TEAM :

Programmation & Développement : Alexandra Zaïnal
Conception & Développement : Baudouin d'Aumeries
Co-Programmation & Développement : Marc-Olivier Méhu
Soutien technique & logistique : Manuel Goepfert

Contact : metmap@orbifly.com




SOURCES & CREDITS :

   NOAA